Time;durP1;ratioP1;P1;durP2;ratioP2;P2;SDS_P1;SDS_P2;PMS_P1;PMS_P2;Temp;Humidity;BMP_temperature;BMP_pressure;BME280_temperature;BME280_humidity;BME280_pressure;Samples;Min_cycle;Max_cycle;Signal;HPM_P1;HPM_P2
2023/01/24 00:00:59;;;;;;;23.63;18.60;;;1.30;1.00;;;;;;5008276;28;20924;-79
2023/01/24 00:03:24;;;;;;;22.40;16.70;;;1.20;1.00;;;;;;5008040;28;20256;-80
2023/01/24 00:05:50;;;;;;;23.40;16.13;;;1.30;1.00;;;;;;5008679;28;20222;-79
2023/01/24 00:08:20;;;;;;;22.70;15.70;;;1.30;1.00;;;;;;5009317;28;20571;-83
2023/01/24 00:10:46;;;;;;;21.33;14.80;;;1.30;1.00;;;;;;5007644;28;20278;-79
2023/01/24 00:13:13;;;;;;;23.57;15.50;;;1.30;1.00;;;;;;5008083;28;20198;-79
2023/01/24 00:15:39;;;;;;;20.80;14.00;;;1.20;1.00;;;;;;5009257;28;20195;-81
2023/01/24 00:18:04;;;;;;;20.43;13.73;;;1.20;1.00;;;;;;5010330;28;20187;-79
2023/01/24 00:20:30;;;;;;;20.37;14.07;;;1.20;1.00;;;;;;5009079;28;20187;-80
2023/01/24 00:22:56;;;;;;;18.30;13.20;;;1.20;1.00;;;;;;5008202;28;20183;-80
2023/01/24 00:25:22;;;;;;;19.27;13.77;;;1.30;1.00;;;;;;5008321;28;20195;-80
2023/01/24 00:27:48;;;;;;;15.00;11.07;;;1.30;1.00;;;;;;5008864;28;20290;-81
2023/01/24 00:30:14;;;;;;;15.87;11.80;;;1.30;1.00;;;;;;5008257;28;20214;-79
2023/01/24 00:32:39;;;;;;;17.47;11.97;;;1.30;99.90;;;;;;5008498;28;20192;-79
2023/01/24 00:35:05;;;;;;;18.37;12.40;;;1.30;99.90;;;;;;5008446;28;20180;-78
2023/01/24 00:37:31;;;;;;;17.20;11.87;;;1.40;99.90;;;;;;5006460;28;20269;-81
2023/01/24 00:39:56;;;;;;;17.30;12.03;;;1.30;1.00;;;;;;5008512;28;20192;-79
2023/01/24 00:42:22;;;;;;;17.63;12.23;;;1.30;1.00;;;;;;5007742;28;20246;-79
2023/01/24 00:44:47;;;;;;;15.90;11.03;;;1.30;99.90;;;;;;5008306;28;20194;-79
2023/01/24 00:47:13;;;;;;;17.57;11.77;;;1.30;99.90;;;;;;5006678;28;20226;-80
2023/01/24 00:49:38;;;;;;;15.40;10.77;;;1.40;99.90;;;;;;5007069;28;20744;-78
2023/01/24 00:52:04;;;;;;;15.33;11.00;;;1.40;99.90;;;;;;5008506;28;20212;-79
2023/01/24 00:54:29;;;;;;;13.17;10.03;;;1.40;99.90;;;;;;5008325;28;20195;-80
2023/01/24 00:56:55;;;;;;;13.67;10.50;;;1.40;99.90;;;;;;5007096;28;20196;-78
2023/01/24 00:59:21;;;;;;;16.10;10.57;;;1.40;99.90;;;;;;5008146;28;20279;-79
2023/01/24 01:01:46;;;;;;;15.47;10.37;;;1.40;99.90;;;;;;5007044;28;20245;-79
2023/01/24 01:04:12;;;;;;;14.57;10.00;;;1.40;99.90;;;;;;5007768;28;20191;-79
2023/01/24 01:06:37;;;;;;;15.63;10.83;;;1.40;99.90;;;;;;5007928;28;20235;-79
2023/01/24 01:09:03;;;;;;;13.60;10.10;;;1.40;99.90;;;;;;5008277;28;20246;-80
2023/01/24 01:11:29;;;;;;;13.07;9.60;;;1.40;99.90;;;;;;5008073;28;20208;-79
2023/01/24 01:13:55;;;;;;;12.57;9.13;;;1.40;99.90;;;;;;5006250;28;20275;-79
2023/01/24 01:16:22;;;;;;;13.93;9.70;;;1.40;99.90;;;;;;5022555;28;20616;-79
2023/01/24 01:18:50;;;;;;;12.40;9.50;;;2.20;99.90;;;;;;5006659;28;20249;-79
2023/01/24 01:21:18;;;;;;;15.10;10.60;;;1.40;99.90;;;;;;5009180;28;20241;-80
2023/01/24 01:23:44;;;;;;;14.70;11.07;;;1.40;99.90;;;;;;5007380;28;20184;-79
2023/01/24 01:26:18;;;;;;;15.37;10.70;;;1.30;99.90;;;;;;5008549;28;20207;-78
2023/01/24 01:28:44;;;;;;;15.03;10.87;;;1.30;99.90;;;;;;5009832;28;20187;-79
2023/01/24 01:31:09;;;;;;;13.77;10.30;;;1.30;99.90;;;;;;5009932;28;20211;-80
2023/01/24 01:33:35;;;;;;;14.90;10.27;;;1.20;99.90;;;;;;5008622;28;20231;-80
2023/01/24 01:36:01;;;;;;;17.17;11.53;;;1.20;99.90;;;;;;5009444;28;20196;-80
2023/01/24 01:38:27;;;;;;;14.20;10.97;;;1.20;99.90;;;;;;5009396;28;20184;-80
2023/01/24 01:40:53;;;;;;;15.63;11.37;;;1.20;99.90;;;;;;5009492;28;20247;-79
2023/01/24 01:43:24;;;;;;;15.53;11.37;;;1.20;99.90;;;;;;5009489;28;20196;-80
2023/01/24 01:45:52;;;;;;;14.00;9.67;;;1.20;99.90;;;;;;5009384;28;20215;-80
2023/01/24 01:48:42;;;;;;;16.07;11.30;;;1.20;99.90;;;;;;5008620;28;20200;-80
2023/01/24 01:51:22;;;;;;;15.10;10.67;;;1.30;99.90;;;;;;5024406;28;20199;-79
2023/01/24 01:54:19;;;;;;;15.57;11.17;;;1.20;99.90;;;;;;5007847;28;20190;-80
2023/01/24 01:56:52;;;;;;;14.90;10.97;;;1.20;99.90;;;;;;5008421;28;20221;-79
2023/01/24 01:59:34;;;;;;;16.90;11.23;;;1.20;99.90;;;;;;5009026;28;20262;-79
2023/01/24 02:02:00;;;;;;;14.87;10.40;;;1.20;99.90;;;;;;5022600;28;20284;-80
2023/01/24 02:04:34;;;;;;;15.33;10.50;;;1.20;99.90;;;;;;5007075;28;20202;-79
2023/01/24 02:07:09;;;;;;;14.03;9.93;;;1.10;99.90;;;;;;5006563;28;20282;-80
2023/01/24 02:09:41;;;;;;;15.43;9.57;;;1.20;99.90;;;;;;5008250;28;20187;-79
2023/01/24 02:12:13;;;;;;;14.10;10.73;;;1.20;99.90;;;;;;5006961;28;20286;-79
2023/01/24 02:17:24;;;;;;;15.13;11.07;;;1.20;99.90;;;;;;5007781;28;20210;-79
2023/01/24 02:20:09;;;;;;;15.00;10.40;;;1.20;99.90;;;;;;5008987;28;20184;-80
2023/01/24 02:22:56;;;;;;;15.67;10.80;;;1.50;99.90;;;;;;5007694;28;20320;-79
2023/01/24 02:26:00;;;;;;;15.50;10.83;;;1.20;99.90;;;;;;5007893;28;20233;-79
2023/01/24 02:28:26;;;;;;;17.07;11.33;;;1.20;99.90;;;;;;5004544;28;20270;-79
2023/01/24 02:30:55;;;;;;;15.10;10.53;;;1.20;99.90;;;;;;5006944;28;20648;-81
2023/01/24 02:33:21;;;;;;;15.77;10.83;;;1.20;99.90;;;;;;5005991;28;20200;-80
2023/01/24 02:35:47;;;;;;;13.30;10.40;;;1.20;99.90;;;;;;5006729;28;20208;-80
2023/01/24 02:38:22;;;;;;;16.37;11.47;;;1.20;99.90;;;;;;5008065;28;20240;-79
2023/01/24 02:40:53;;;;;;;15.43;10.57;;;1.20;99.90;;;;;;5008086;28;20665;-80
2023/01/24 02:43:21;;;;;;;16.50;11.30;;;1.10;99.90;;;;;;5006953;28;20265;-80
2023/01/24 02:45:47;;;;;;;16.87;11.93;;;1.10;99.90;;;;;;5007555;28;20226;-80
2023/01/24 02:48:12;;;;;;;17.13;11.20;;;1.10;99.90;;;;;;5007737;28;20187;-80
2023/01/24 02:53:31;;;;;;;14.80;10.63;;;1.10;1.00;;;;;;5008165;28;20217;-80
2023/01/24 02:58:48;;;;;;;16.73;11.10;;;1.10;99.90;;;;;;5007262;28;20195;-81
2023/01/24 03:01:14;;;;;;;16.30;11.50;;;1.10;1.00;;;;;;5008023;28;20709;-79
2023/01/24 03:03:42;;;;;;;15.30;10.50;;;1.20;99.90;;;;;;5006378;28;20193;-80
2023/01/24 03:06:08;;;;;;;14.13;10.43;;;1.10;99.90;;;;;;5006871;28;20841;-79
2023/01/24 03:08:34;;;;;;;14.60;11.00;;;1.10;99.90;;;;;;5006418;28;20203;-79
2023/01/24 03:11:01;;;;;;;17.60;14.15;;;1.10;99.90;;;;;;5005918;28;20435;-79
2023/01/24 03:35:22;;;;;;;13.83;9.83;;;1.10;99.90;;;;;;5011051;28;20561;-79
2023/01/24 03:40:32;;;;;;;15.23;10.23;;;1.10;99.90;;;;;;5011096;28;20197;-80
2023/01/24 03:42:59;;;;;;;11.23;8.53;;;1.10;99.90;;;;;;5011021;28;20187;-80
2023/01/24 03:45:31;;;;;;;11.87;8.90;;;1.10;99.90;;;;;;5010561;28;20187;-80
2023/01/24 03:47:59;;;;;;;14.50;9.57;;;1.10;99.90;;;;;;5009516;28;20228;-79
2023/01/24 03:53:23;;;;;;;14.33;10.13;;;1.10;99.90;;;;;;5010628;28;20191;-79
2023/01/24 03:56:00;;;;;;;14.47;10.43;;;1.10;99.90;;;;;;5009626;28;20211;-79
2023/01/24 03:58:27;;;;;;;13.33;9.87;;;1.10;99.90;;;;;;5009157;28;20194;-79
2023/01/24 04:00:54;;;;;;;13.00;9.77;;;1.10;99.90;;;;;;5010943;28;20191;-80
2023/01/24 04:03:20;;;;;;;14.10;9.93;;;1.90;99.90;;;;;;5009966;28;20234;-80
2023/01/24 04:05:49;;;;;;;15.13;9.90;;;1.00;99.90;;;;;;5007259;28;20617;-80
2023/01/24 04:08:16;;;;;;;15.40;10.50;;;1.00;99.90;;;;;;5008935;28;20231;-79
2023/01/24 04:10:42;;;;;;;12.83;9.47;;;1.00;99.90;;;;;;5010138;28;20211;-80
2023/01/24 04:13:09;;;;;;;13.90;9.50;;;1.00;99.90;;;;;;5009496;28;20179;-79
2023/01/24 04:15:34;;;;;;;13.33;9.70;;;1.00;99.90;;;;;;5008136;28;20191;-80
2023/01/24 04:18:03;;;;;;;14.27;9.77;;;1.00;99.90;;;;;;5010053;28;20187;-79
2023/01/24 04:20:30;;;;;;;13.47;9.27;;;1.10;99.90;;;;;;5010207;28;20246;-80
2023/01/24 04:22:55;;;;;;;11.40;8.77;;;1.00;99.90;;;;;;5010406;28;20202;-79
2023/01/24 04:25:21;;;;;;;7.33;5.87;;;1.00;99.90;;;;;;5009964;28;20653;-80
2023/01/24 04:27:47;;;;;;;12.70;9.63;;;1.10;99.90;;;;;;5007596;28;20222;-79
2023/01/24 04:30:15;;;;;;;13.93;10.27;;;1.10;99.90;;;;;;5010282;28;20262;-79
2023/01/24 04:32:41;;;;;;;15.30;10.30;;;1.00;99.90;;;;;;5009210;28;20192;-79
2023/01/24 04:35:08;;;;;;;10.90;7.83;;;1.00;99.90;;;;;;5009339;28;20180;-80
2023/01/24 04:37:33;;;;;;;10.13;7.20;;;1.00;99.90;;;;;;5007808;28;20212;-79
2023/01/24 04:40:01;;;;;;;12.03;7.90;;;1.00;99.90;;;;;;5009002;28;20188;-80
2023/01/24 04:42:26;;;;;;;11.33;7.97;;;1.00;99.90;;;;;;5007552;28;20234;-79
2023/01/24 04:44:52;;;;;;;12.67;9.13;;;1.00;99.90;;;;;;5009295;28;20728;-78
2023/01/24 04:47:17;;;;;;;12.70;9.53;;;1.00;99.90;;;;;;5007184;28;20307;-79
2023/01/24 04:49:43;;;;;;;11.43;8.33;;;1.00;99.90;;;;;;5008508;28;20226;-78
2023/01/24 04:52:13;;;;;;;14.83;9.47;;;1.00;99.90;;;;;;5008911;28;20365;-79
2023/01/24 04:54:39;;;;;;;13.23;10.07;;;1.00;99.90;;;;;;5008828;28;20199;-80
2023/01/24 04:57:06;;;;;;;14.67;9.87;;;1.00;99.90;;;;;;5008700;28;20212;-79
2023/01/24 04:59:31;;;;;;;14.00;9.77;;;1.00;99.90;;;;;;5008671;28;20191;-79
2023/01/24 05:01:57;;;;;;;12.37;9.10;;;1.00;99.90;;;;;;5008069;28;20274;-79
2023/01/24 05:04:22;;;;;;;10.30;8.20;;;1.00;99.90;;;;;;5008199;28;20203;-78
2023/01/24 05:06:48;;;;;;;8.57;6.63;;;1.00;99.90;;;;;;5008178;28;20215;-79
2023/01/24 05:09:13;;;;;;;8.57;6.73;;;1.00;99.90;;;;;;5008447;28;20246;-79
2023/01/24 05:11:39;;;;;;;9.10;7.03;;;1.00;99.90;;;;;;5007051;28;20238;-79
2023/01/24 05:14:07;;;;;;;8.53;6.33;;;1.00;99.90;;;;;;5008164;28;20184;-78
2023/01/24 05:16:32;;;;;;;8.83;6.33;;;1.00;99.90;;;;;;5007894;28;21015;-79
2023/01/24 05:18:58;;;;;;;8.27;6.93;;;1.00;99.90;;;;;;5007344;28;20184;-78
2023/01/24 05:21:24;;;;;;;7.63;5.50;;;1.00;99.90;;;;;;5006987;28;20183;-80
2023/01/24 05:23:51;;;;;;;8.17;5.87;;;1.00;99.90;;;;;;5008560;28;20274;-79
2023/01/24 05:26:18;;;;;;;6.03;5.27;;;1.00;99.90;;;;;;5008089;28;20203;-80
2023/01/24 05:28:44;;;;;;;6.90;5.30;;;1.00;99.90;;;;;;5007585;28;20595;-80
2023/01/24 05:31:09;;;;;;;8.20;6.03;;;0.90;99.90;;;;;;5008650;28;20204;-78
2023/01/24 05:33:35;;;;;;;7.57;5.87;;;1.00;99.90;;;;;;5006918;28;20199;-79
2023/01/24 05:36:05;;;;;;;6.53;5.27;;;0.90;99.90;;;;;;5023577;28;20214;-79
2023/01/24 05:38:31;;;;;;;7.53;5.23;;;1.00;99.90;;;;;;5008124;28;20193;-79
2023/01/24 05:41:01;;;;;;;6.77;4.70;;;1.00;99.90;;;;;;5007487;28;20190;-79
2023/01/24 05:43:27;;;;;;;6.83;5.00;;;1.00;99.90;;;;;;5008706;28;20207;-79
2023/01/24 05:46:01;;;;;;;6.60;5.17;;;1.00;99.90;;;;;;5008481;28;20207;-79
2023/01/24 05:48:27;;;;;;;5.43;4.10;;;1.00;99.90;;;;;;5006918;28;20218;-79
2023/01/24 05:50:58;;;;;;;6.50;5.20;;;1.00;98.90;;;;;;5008355;28;20685;-80
2023/01/24 05:53:23;;;;;;;5.97;5.00;;;1.00;99.90;;;;;;5008419;28;20246;-79
2023/01/24 05:55:58;;;;;;;8.03;5.50;;;1.00;99.90;;;;;;5007907;28;20203;-79
2023/01/24 05:58:25;;;;;;;6.00;4.90;;;1.00;99.90;;;;;;5008052;28;20187;-80
2023/01/24 06:00:51;;;;;;;5.57;4.60;;;1.00;99.90;;;;;;5008353;28;20210;-78
2023/01/24 06:03:16;;;;;;;5.03;4.13;;;1.00;99.80;;;;;;5008109;28;21018;-80
2023/01/24 06:05:49;;;;;;;6.70;5.03;;;1.00;96.70;;;;;;5006288;28;20705;-80
2023/01/24 06:08:16;;;;;;;6.70;5.07;;;1.00;98.40;;;;;;5007646;28;20784;-79
2023/01/24 06:10:42;;;;;;;6.27;4.80;;;1.00;99.60;;;;;;5007616;28;20223;-80
2023/01/24 06:13:07;;;;;;;6.80;5.57;;;1.00;97.80;;;;;;5006902;28;20183;-79
2023/01/24 06:15:33;;;;;;;5.33;4.50;;;1.00;99.90;;;;;;5007700;28;20192;-79
2023/01/24 06:17:58;;;;;;;6.53;5.03;;;0.90;99.90;;;;;;5006923;28;20419;-79
2023/01/24 06:20:24;;;;;;;4.73;4.23;;;1.00;92.40;;;;;;5006339;28;20194;-80
2023/01/24 06:23:07;;;;;;;5.40;4.30;;;1.00;95.20;;;;;;5007428;28;20250;-79
2023/01/24 06:25:33;;;;;;;4.43;3.80;;;1.00;84.50;;;;;;5007333;28;20705;-79
2023/01/24 06:28:00;;;;;;;6.10;4.70;;;1.00;90.20;;;;;;5006211;28;20187;-79
2023/01/24 06:30:26;;;;;;;7.03;5.63;;;1.00;95.90;;;;;;5006945;28;20211;-79
2023/01/24 06:33:02;;;;;;;7.67;5.17;;;1.00;88.60;;;;;;5004101;28;20204;-79
2023/01/24 06:35:52;;;;;;;5.87;4.90;;;1.00;89.50;;;;;;5006256;28;20168;-79
2023/01/24 06:38:21;;;;;;;5.63;4.80;;;1.00;94.00;;;;;;5006581;28;20203;-79
2023/01/24 06:40:52;;;;;;;7.10;5.37;;;1.00;99.60;;;;;;5006839;28;20270;-79
2023/01/24 06:43:18;;;;;;;6.30;5.07;;;0.90;99.90;;;;;;5007449;28;20345;-79
2023/01/24 06:45:43;;;;;;;6.13;5.13;;;0.90;99.90;;;;;;5005875;28;20200;-79
2023/01/24 06:48:09;;;;;;;5.90;4.90;;;0.90;98.60;;;;;;5007689;28;20196;-79
2023/01/24 06:50:35;;;;;;;6.13;5.53;;;0.90;99.90;;;;;;5004743;28;20431;-79
2023/01/24 06:53:00;;;;;;;5.80;4.97;;;0.90;95.90;;;;;;5006924;28;20234;-79
2023/01/24 06:55:26;;;;;;;4.47;4.07;;;0.90;94.30;;;;;;5006065;28;20186;-78
2023/01/24 06:57:59;;;;;;;4.47;3.80;;;0.90;94.10;;;;;;5007127;28;20242;-79
2023/01/24 07:00:25;;;;;;;5.20;4.00;;;0.90;99.80;;;;;;5008795;28;20245;-79
2023/01/24 07:03:02;;;;;;;5.50;4.60;;;0.90;99.90;;;;;;5008302;28;20214;-79
2023/01/24 07:05:28;;;;;;;5.60;4.37;;;0.90;99.90;;;;;;5006072;28;20187;-79
2023/01/24 07:07:55;;;;;;;5.27;4.70;;;0.90;99.90;;;;;;5005033;28;20194;-79
2023/01/24 07:10:20;;;;;;;5.93;4.90;;;0.90;99.90;;;;;;5009048;28;20184;-79
2023/01/24 07:12:47;;;;;;;5.60;5.00;;;0.90;99.90;;;;;;5007659;28;20198;-80
2023/01/24 07:15:12;;;;;;;6.70;5.40;;;0.80;99.90;;;;;;5010161;28;20257;-77
2023/01/24 07:17:38;;;;;;;6.53;5.23;;;0.80;99.90;;;;;;5009113;28;20231;-78
2023/01/24 07:20:05;;;;;;;6.40;5.10;;;0.80;99.90;;;;;;5010120;28;20176;-78
2023/01/24 07:22:31;;;;;;;5.90;5.10;;;0.80;99.90;;;;;;5008770;28;20533;-78
2023/01/24 07:24:56;;;;;;;5.80;5.20;;;1.00;99.90;;;;;;5009472;28;20262;-78
2023/01/24 07:27:22;;;;;;;6.07;4.77;;;0.80;99.90;;;;;;5008295;28;20298;-78
2023/01/24 07:29:48;;;;;;;5.87;4.83;;;0.80;99.90;;;;;;5009128;28;20193;-78
2023/01/24 07:32:13;;;;;;;8.40;5.60;;;0.90;99.90;;;;;;5008732;28;20215;-77
2023/01/24 07:34:39;;;;;;;6.50;5.60;;;0.90;99.90;;;;;;5008914;28;20203;-78
2023/01/24 07:37:07;;;;;;;6.47;5.03;;;0.90;99.90;;;;;;5009503;28;20199;-78
2023/01/24 07:39:33;;;;;;;5.23;4.37;;;0.80;99.90;;;;;;5008201;28;20230;-78
2023/01/24 07:41:59;;;;;;;5.33;4.83;;;0.90;99.90;;;;;;5009955;28;20302;-78
2023/01/24 07:44:24;;;;;;;5.17;4.50;;;0.90;99.90;;;;;;5010270;28;20607;-78
2023/01/24 07:46:50;;;;;;;6.53;4.80;;;0.80;99.90;;;;;;5009511;28;20211;-78
2023/01/24 07:49:16;;;;;;;5.60;4.60;;;0.90;99.90;;;;;;5009700;28;20192;-78
2023/01/24 07:51:48;;;;;;;5.03;3.97;;;0.90;99.90;;;;;;5008774;28;20732;-77
2023/01/24 07:54:14;;;;;;;4.80;4.20;;;0.90;99.90;;;;;;5011614;28;20168;-78
2023/01/24 07:56:39;;;;;;;6.63;5.40;;;0.90;99.90;;;;;;5009264;28;20204;-78
2023/01/24 07:59:05;;;;;;;4.70;4.20;;;1.00;99.90;;;;;;5010044;28;20190;-77
2023/01/24 08:01:31;;;;;;;5.90;4.60;;;0.90;99.90;;;;;;5008333;28;20679;-77
2023/01/24 08:03:57;;;;;;;5.13;4.50;;;0.90;99.90;;;;;;5008041;28;21173;-78
2023/01/24 08:06:24;;;;;;;5.03;4.47;;;1.00;99.90;;;;;;5008243;28;20208;-78
2023/01/24 08:08:49;;;;;;;5.83;4.40;;;1.00;99.90;;;;;;5008656;28;20186;-77
2023/01/24 08:11:17;;;;;;;4.63;3.80;;;1.00;99.90;;;;;;5009104;28;20581;-77
2023/01/24 08:13:43;;;;;;;6.77;5.27;;;1.00;97.10;;;;;;5007637;28;20530;-77
2023/01/24 08:16:09;;;;;;;6.17;4.90;;;1.10;97.30;;;;;;5004575;28;20207;-76
2023/01/24 08:18:37;;;;;;;5.83;5.27;;;1.10;99.90;;;;;;5007283;28;20246;-78
2023/01/24 08:21:04;;;;;;;6.47;5.60;;;1.10;99.90;;;;;;5007006;28;20570;-76
2023/01/24 08:23:30;;;;;;;6.00;5.40;;;1.00;99.90;;;;;;5006868;28;20187;-78
2023/01/24 08:25:58;;;;;;;6.90;6.20;;;0.90;99.90;;;;;;5005551;28;20208;-78
2023/01/24 08:28:23;;;;;;;6.60;5.63;;;1.00;99.90;;;;;;5007516;28;20250;-77
2023/01/24 08:30:49;;;;;;;5.90;5.30;;;0.90;99.90;;;;;;5006426;28;20227;-78
2023/01/24 08:33:18;;;;;;;6.07;5.47;;;1.00;99.90;;;;;;5002870;28;20283;-77
2023/01/24 08:35:45;;;;;;;6.47;5.47;;;1.00;99.90;;;;;;5006236;28;20214;-77
2023/01/24 08:38:12;;;;;;;8.30;5.20;;;1.00;99.90;;;;;;5003428;28;20929;-77
2023/01/24 08:40:37;;;;;;;6.23;5.47;;;1.00;99.90;;;;;;5004535;28;20278;-77
2023/01/24 08:43:03;;;;;;;6.00;5.40;;;1.00;99.90;;;;;;5005144;28;20652;-77
2023/01/24 08:45:29;;;;;;;6.73;6.00;;;1.00;99.90;;;;;;5006892;28;20677;-78
2023/01/24 08:47:55;;;;;;;6.70;6.00;;;1.00;99.90;;;;;;5005496;28;20391;-78
2023/01/24 08:50:21;;;;;;;6.73;5.97;;;1.10;99.90;;;;;;5007591;28;20281;-78
2023/01/24 08:52:47;;;;;;;6.40;5.67;;;1.10;99.90;;;;;;5005753;28;20354;-79
2023/01/24 08:55:14;;;;;;;6.83;6.13;;;1.10;99.90;;;;;;5004871;28;20195;-80
2023/01/24 08:57:39;;;;;;;6.83;6.07;;;1.10;99.90;;;;;;5004386;28;20288;-80
2023/01/24 09:00:06;;;;;;;6.13;5.47;;;1.10;99.90;;;;;;5004410;28;20326;-78
2023/01/24 09:02:32;;;;;;;6.57;5.60;;;1.20;99.90;;;;;;5005532;28;20191;-80
2023/01/24 09:04:58;;;;;;;7.13;5.67;;;1.20;99.90;;;;;;5005378;28;20195;-80
2023/01/24 09:07:24;;;;;;;6.50;5.83;;;1.20;99.90;;;;;;5005910;28;20584;-78
2023/01/24 09:09:49;;;;;;;6.87;6.17;;;1.20;99.90;;;;;;5005768;28;20676;-80
2023/01/24 09:12:15;;;;;;;6.10;4.87;;;1.20;99.90;;;;;;5002818;28;20207;-79
2023/01/24 09:14:41;;;;;;;6.10;5.50;;;1.20;99.90;;;;;;5004792;28;20197;-79
2023/01/24 09:17:07;;;;;;;6.87;5.47;;;1.20;99.90;;;;;;5020022;28;20210;-78
2023/01/24 09:19:32;;;;;;;6.57;5.97;;;1.20;99.80;;;;;;5006876;28;20275;-78
2023/01/24 09:21:58;;;;;;;6.10;5.50;;;1.30;99.90;;;;;;5005809;28;20188;-77
2023/01/24 09:24:24;;;;;;;7.43;6.53;;;1.30;99.90;;;;;;5004191;28;20199;-80
2023/01/24 09:26:50;;;;;;;33.07;21.43;;;1.30;99.90;;;;;;5003341;28;20206;-79
2023/01/24 09:29:16;;;;;;;16.97;12.00;;;1.40;99.90;;;;;;5003751;28;20194;-78
2023/01/24 09:31:41;;;;;;;7.50;6.37;;;1.40;99.90;;;;;;5007444;28;20759;-78
2023/01/24 09:34:07;;;;;;;8.90;6.97;;;1.40;97.90;;;;;;5007039;28;20736;-79
2023/01/24 09:36:33;;;;;;;10.50;9.40;;;1.40;97.30;;;;;;5004907;28;20223;-80
2023/01/24 09:38:58;;;;;;;17.67;13.03;;;1.40;95.90;;;;;;5005765;28;20215;-80
2023/01/24 09:41:53;;;;;;;13.93;11.00;;;1.40;93.00;;;;;;5006319;28;20202;-79
2023/01/24 09:44:38;;;;;;;7.37;6.67;;;1.40;95.10;;;;;;5005730;28;20265;-80
2023/01/24 09:47:23;;;;;;;7.07;6.10;;;1.40;92.50;;;;;;5004265;28;20235;-78
2023/01/24 09:50:00;;;;;;;18.57;11.90;;;1.40;86.30;;;;;;5004958;28;20859;-80
2023/01/24 09:52:27;;;;;;;7.90;6.03;;;1.50;97.40;;;;;;5005979;28;20241;-77
2023/01/24 09:55:16;;;;;;;7.43;5.90;;;1.50;97.10;;;;;;5005534;28;20188;-80
2023/01/24 09:58:06;;;;;;;50.27;29.80;;;1.50;94.50;;;;;;5004921;28;20218;-78
2023/01/24 10:00:37;;;;;;;7.13;6.43;;;1.60;86.80;;;;;;5004388;28;20192;-79
2023/01/24 10:03:18;;;;;;;10.57;8.30;;;1.60;85.80;;;;;;5007369;28;20193;-79
2023/01/24 10:05:48;;;;;;;19.90;13.23;;;1.70;94.00;;;;;;5006863;28;20188;-79
2023/01/24 10:08:17;;;;;;;16.30;12.10;;;1.80;94.10;;;;;;5022722;28;20211;-78
2023/01/24 10:11:11;;;;;;;9.70;8.67;;;1.60;68.80;;;;;;5006981;28;20199;-78
2023/01/24 10:14:03;;;;;;;11.30;8.53;;;1.80;89.10;;;;;;5004065;28;20755;-78
2023/01/24 10:16:52;;;;;;;35.87;22.57;;;1.80;70.20;;;;;;5022104;28;20623;-79
2023/01/24 10:19:45;;;;;;;13.03;9.73;;;1.60;62.90;;;;;;5006772;28;20227;-79
2023/01/24 10:22:23;;;;;;;7.10;6.20;;;1.70;69.20;;;;;;5004510;28;20200;-78
2023/01/24 10:25:13;;;;;;;10.90;9.40;;;1.60;67.80;;;;;;5005848;28;20662;-79
2023/01/24 10:27:42;;;;;;;8.80;7.40;;;1.60;72.70;;;;;;5006969;28;20226;-79
2023/01/24 10:30:43;;;;;;;39.20;25.30;;;1.50;80.40;;;;;;5007492;28;20742;-79
2023/01/24 10:33:17;;;;;;;8.37;6.93;;;1.50;64.90;;;;;;5005234;28;20199;-79
2023/01/24 10:36:10;;;;;;;10.00;7.30;;;1.50;72.30;;;;;;5005839;28;20546;-79
2023/01/24 10:38:36;;;;;;;8.93;8.03;;;1.50;65.30;;;;;;5016728;28;20198;-79
2023/01/24 10:41:18;;;;;;;9.17;7.97;;;1.50;64.00;;;;;;5006559;28;20187;-79
2023/01/24 10:43:49;;;;;;;31.57;22.73;;;1.40;59.20;;;;;;5005285;28;20180;-78
2023/01/24 10:47:09;;;;;;;9.73;8.20;;;1.50;74.70;;;;;;5006372;28;20207;-79
2023/01/24 10:49:37;;;;;;;9.20;7.30;;;1.60;78.70;;;;;;5006656;28;20215;-78
2023/01/24 10:52:15;;;;;;;68.27;45.20;;;1.70;72.70;;;;;;5005906;28;20203;-79
2023/01/24 10:54:43;;;;;;;18.00;13.37;;;1.70;57.00;;;;;;5006815;28;20262;-78
2023/01/24 10:57:27;;;;;;;9.00;7.57;;;1.70;64.70;;;;;;5007071;28;20207;-79
2023/01/24 10:59:53;;;;;;;134.87;79.33;;;1.60;52.10;;;;;;5005951;28;20179;-79
2023/01/24 11:02:22;;;;;;;34.30;25.00;;;1.70;71.30;;;;;;5007045;28;20198;-79
2023/01/24 11:04:57;;;;;;;8.67;7.57;;;1.80;60.00;;;;;;5007100;28;20234;-79
2023/01/24 11:07:38;;;;;;;41.83;31.50;;;1.80;59.70;;;;;;5002630;28;20207;-78
2023/01/24 11:10:19;;;;;;;26.60;21.47;;;1.70;49.90;;;;;;5005966;28;20653;-79
2023/01/24 11:12:56;;;;;;;11.37;9.43;;;1.70;56.00;;;;;;5007637;28;20195;-79
2023/01/24 11:15:27;;;;;;;8.10;6.83;;;1.70;59.50;;;;;;5007308;28;20183;-80
2023/01/24 11:18:17;;;;;;;48.87;37.97;;;1.70;53.30;;;;;;5008128;28;20203;-79
2023/01/24 11:20:44;;;;;;;19.47;16.00;;;1.60;50.90;;;;;;5004793;28;20207;-78
2023/01/24 11:23:24;;;;;;;8.47;7.37;;;1.70;53.60;;;;;;5009108;28;20187;-78
2023/01/24 11:26:01;;;;;;;8.00;5.97;;;1.70;54.70;;;;;;5021267;28;21486;-80
2023/01/24 11:28:37;;;;;;;5.90;5.30;;;1.70;65.50;;;;;;5004162;28;20611;-80
2023/01/24 11:31:17;;;;;;;12.53;11.17;;;1.70;53.70;;;;;;5005306;28;20230;-79
2023/01/24 11:34:37;;;;;;;7.60;6.80;;;1.70;62.30;;;;;;5005176;28;20199;-80
2023/01/24 11:37:35;;;;;;;6.33;5.33;;;1.70;43.50;;;;;;4983494;28;20300;-80
2023/01/24 11:40:09;;;;;;;14.93;13.43;;;1.70;46.20;;;;;;4945238;28;20243;-79
2023/01/24 11:42:46;;;;;;;9.07;7.17;;;1.70;74.00;;;;;;5002470;28;20694;-79
2023/01/24 11:45:32;;;;;;;8.00;6.33;;;1.90;54.30;;;;;;5004436;28;20191;-80
2023/01/24 11:48:12;;;;;;;7.10;6.40;;;1.70;33.50;;;;;;5009787;28;20745;-80
2023/01/24 11:51:00;;;;;;;6.43;5.47;;;1.70;31.50;;;;;;5011012;28;20203;-77
2023/01/24 11:53:52;;;;;;;6.53;5.90;;;1.60;37.10;;;;;;5009998;28;20585;-79
2023/01/24 11:56:49;;;;;;;6.67;5.73;;;1.60;43.80;;;;;;5025243;28;20203;-78
2023/01/24 11:59:48;;;;;;;6.30;5.40;;;1.60;44.00;;;;;;5011543;28;20179;-79
2023/01/24 12:02:32;;;;;;;7.83;5.80;;;1.70;62.20;;;;;;5010264;28;20191;-79
2023/01/24 12:05:29;;;;;;;8.27;7.47;;;1.60;43.50;;;;;;5009470;28;20211;-78
2023/01/24 12:08:19;;;;;;;7.63;6.83;;;1.80;58.50;;;;;;5009030;28;20842;-79
2023/01/24 12:10:44;;;;;;;15.07;13.50;;;1.90;57.40;;;;;;5010080;28;20211;-79
2023/01/24 12:13:31;;;;;;;6.70;4.90;;;1.90;42.60;;;;;;5006806;28;20187;-79
2023/01/24 12:16:09;;;;;;;5.93;5.33;;;1.70;30.00;;;;;;5010711;28;20207;-81
2023/01/24 12:18:56;;;;;;;5.83;5.03;;;1.60;34.70;;;;;;5007857;28;20214;-80
2023/01/24 12:21:23;;;;;;;7.20;5.33;;;1.60;32.90;;;;;;5008556;28;20183;-80
2023/01/24 12:23:59;;;;;;;5.23;4.73;;;1.70;39.10;;;;;;5007961;28;20567;-79
2023/01/24 12:26:28;;;;;;;6.80;5.77;;;1.80;35.00;;;;;;5009481;28;20203;-79
2023/01/24 12:29:10;;;;;;;8.00;7.07;;;1.90;39.60;;;;;;5007914;28;20648;-80
2023/01/24 12:31:49;;;;;;;26.17;23.77;;;2.00;47.80;;;;;;5010318;28;20211;-80
2023/01/24 12:34:43;;;;;;;9.10;8.20;;;2.00;40.00;;;;;;5011158;28;20739;-80
2023/01/24 12:37:24;;;;;;;8.03;7.10;;;2.00;27.90;;;;;;5010543;28;20235;-81
2023/01/24 12:39:52;;;;;;;11.17;9.67;;;2.00;47.90;;;;;;5027089;28;20179;-79
2023/01/24 12:42:41;;;;;;;9.80;8.80;;;2.10;43.00;;;;;;5026021;28;20192;-81
2023/01/24 12:45:28;;;;;;;13.90;12.47;;;2.10;37.40;;;;;;5012302;28;20192;-81
2023/01/24 12:48:02;;;;;;;9.40;8.37;;;2.20;30.50;;;;;;5008406;28;20204;-80
2023/01/24 12:50:57;;;;;;;11.57;9.27;;;2.10;19.80;;;;;;5008274;28;20178;-80
2023/01/24 12:53:57;;;;;;;7.50;6.60;;;1.90;19.10;;;;;;5009816;28;20184;-79
2023/01/24 12:56:37;;;;;;;6.17;5.50;;;1.80;24.20;;;;;;5010331;28;20210;-79
2023/01/24 12:59:03;;;;;;;12.97;11.20;;;1.70;24.40;;;;;;5025900;28;20211;-79
2023/01/24 13:02:02;;;;;;;14.40;12.90;;;1.80;34.20;;;;;;5011192;28;20179;-81
2023/01/24 13:04:58;;;;;;;9.23;8.33;;;1.90;39.00;;;;;;5007714;28;20188;-79
2023/01/24 13:07:53;;;;;;;10.13;9.13;;;1.90;35.40;;;;;;5010111;28;20207;-80
2023/01/24 13:10:21;;;;;;;9.83;8.83;;;2.00;32.70;;;;;;5010225;28;20568;-81
2023/01/24 13:12:48;;;;;;;9.90;8.90;;;2.00;31.10;;;;;;5009807;28;20573;-82
2023/01/24 13:15:46;;;;;;;18.20;16.27;;;1.90;31.90;;;;;;5009364;28;20179;-79
2023/01/24 13:18:42;;;;;;;11.97;10.53;;;1.90;36.80;;;;;;5022311;28;20708;-79
2023/01/24 13:21:28;;;;;;;13.50;11.67;;;1.90;17.20;;;;;;5024762;28;20252;-80
2023/01/24 13:24:23;;;;;;;8.23;7.30;;;2.10;18.20;;;;;;5008672;28;20254;-79
2023/01/24 13:27:09;;;;;;;8.50;7.70;;;2.00;10.00;;;;;;5025177;28;20195;-81
2023/01/24 13:29:49;;;;;;;9.23;8.33;;;2.30;11.40;;;;;;5006642;28;20233;-79
2023/01/24 13:32:17;;;;;;;9.50;7.90;;;2.00;13.00;;;;;;5009207;28;20199;-78
2023/01/24 13:34:47;;;;;;;12.67;11.50;;;2.10;11.20;;;;;;5008712;28;20200;-82
2023/01/24 13:37:35;;;;;;;15.63;14.27;;;2.10;7.80;;;;;;5023582;28;20303;-79
2023/01/24 13:40:13;;;;;;;21.80;19.80;;;2.10;4.50;;;;;;5004983;28;20199;-81
2023/01/24 13:42:39;;;;;;;30.50;27.53;;;2.00;3.50;;;;;;5022402;28;20179;-80
2023/01/24 13:45:26;;;;;;;10.30;9.30;;;2.00;4.90;;;;;;5006824;28;20190;-80
2023/01/24 13:47:53;;;;;;;13.50;12.30;;;2.00;3.90;;;;;;5006544;28;20212;-81
2023/01/24 13:50:20;;;;;;;9.40;8.60;;;2.00;6.70;;;;;;5009095;28;20195;-79